Map

Track Data

SID SEASON NUMBER BASIN SUBBASIN NAME ISO_TIME NATURE LAT LON WMO_WIND WMO_PRES WMO_AGENCY TRACK_TYPE DIST2LAND LANDFALL IFLAG USA_AGENCY USA_ATCF_ID USA_LAT USA_LON USA_RECORD USA_STATUS USA_WIND USA_PRES USA_SSHS USA_R34_NE USA_R34_SE USA_R34_SW USA_R34_NW USA_R50_NE USA_R50_SE USA_R50_SW USA_R50_NW USA_R64_NE USA_R64_SE USA_R64_SW USA_R64_NW USA_POCI USA_ROCI USA_RMW USA_EYE TOKYO_LAT TOKYO_LON TOKYO_GRADE TOKYO_WIND TOKYO_PRES TOKYO_R50_DIR TOKYO_R50_LONG TOKYO_R50_SHORT TOKYO_R30_DIR TOKYO_R30_LONG TOKYO_R30_SHORT TOKYO_LAND CMA_LAT CMA_LON CMA_CAT CMA_WIND CMA_PRES HKO_LAT HKO_LON HKO_CAT HKO_WIND HKO_PRES NEWDELHI_LAT NEWDELHI_LON NEWDELHI_GRADE NEWDELHI_WIND NEWDELHI_PRES NEWDELHI_CI NEWDELHI_DP NEWDELHI_POCI REUNION_LAT REUNION_LON REUNION_TYPE REUNION_WIND REUNION_PRES REUNION_TNUM REUNION_CI REUNION_RMW REUNION_R34_NE REUNION_R34_SE REUNION_R34_SW REUNION_R34_NW REUNION_R50_NE REUNION_R50_SE REUNION_R50_SW REUNION_R50_NW REUNION_R64_NE REUNION_R64_SE REUNION_R64_SW REUNION_R64_NW BOM_LAT BOM_LON BOM_TYPE BOM_WIND BOM_PRES BOM_TNUM BOM_CI BOM_RMW BOM_R34_NE BOM_R34_SE BOM_R34_SW BOM_R34_NW BOM_R50_NE BOM_R50_SE BOM_R50_SW BOM_R50_NW BOM_R64_NE BOM_R64_SE BOM_R64_SW BOM_R64_NW BOM_ROCI BOM_POCI BOM_EYE BOM_POS_METHOD BOM_PRES_METHOD NADI_LAT NADI_LON NADI_CAT NADI_WIND NADI_PRES WELLINGTON_LAT WELLINGTON_LON WELLINGTON_WIND WELLINGTON_PRES DS824_LAT DS824_LON DS824_STAGE DS824_WIND DS824_PRES TD9636_LAT TD9636_LON TD9636_STAGE TD9636_WIND TD9636_PRES TD9635_LAT TD9635_LON TD9635_WIND TD9635_PRES TD9635_ROCI NEUMANN_LAT NEUMANN_LON NEUMANN_CLASS NEUMANN_WIND NEUMANN_PRES MLC_LAT MLC_LON MLC_CLASS MLC_WIND MLC_PRES USA_GUST BOM_GUST BOM_GUST_PER REUNION_GUST REUNION_GUST_PER USA_SEAHGT USA_SEARAD_NE USA_SEARAD_SE USA_SEARAD_SW USA_SEARAD_NW STORM_SPEED STORM_DIR
1927252N20128 1927 46 WP MM NOT_NAMED 1927-09-08 21:00:00 NR 20.3000 128.300 main 664 664 __________O___ -1 20.3000 128.300 2 2 40
1927252N20128 1927 46 WP MM NOT_NAMED 1927-09-09 00:00:00 NR 20.3610 128.360 main 677 677 __________P___ -1 20.3610 128.360 2 2 34
1927252N20128 1927 46 WP MM NOT_NAMED 1927-09-09 03:00:00 NR 20.4776 128.426 main 681 681 __________P___ -1 20.4776 128.426 2 4 22
1927252N20128 1927 46 WP MM NOT_NAMED 1927-09-09 06:00:00 NR 20.7054 128.504 main 698 698 __________P___ -1 20.7054 128.504 2 6 14
1927252N20128 1927 46 WP MM NOT_NAMED 1927-09-09 09:00:00 NR 21.1000 128.600 main 725 725 __________O___ -1 21.1000 128.600 2 10 11
1927252N20128 1927 46 WP MM NOT_NAMED 1927-09-09 12:00:00 NR 21.6897 128.716 main 762 741 __________P___ -1 21.6897 128.716 2 13 10
1927252N20128 1927 46 WP MM NOT_NAMED 1927-09-09 15:00:00 NR 22.3926 128.836 main 741 728 __________P___ -1 22.3926 128.836 2 14 8
1927252N20128 1927 46 WP MM NOT_NAMED 1927-09-09 18:00:00 NR 23.0992 128.938 main 728 723 __________P___ -1 23.0992 128.938 2 13 7
1927252N20128 1927 46 WP MM NOT_NAMED 1927-09-09 21:00:00 NR 23.7000 129.000 main 723 716 __________O___ -1 23.7000 129.000 2 10 3
1927252N20128 1927 46 WP MM NOT_NAMED 1927-09-10 00:00:00 NR 24.0470 129.002 main 716 711 __________P___ -1 24.0470 129.002 2 6 356
1927252N20128 1927 46 WP MM NOT_NAMED 1927-09-10 03:00:00 NR 24.2773 128.961 main 711 699 __________P___ -1 24.2773 128.961 2 4 345
1927252N20128 1927 46 WP MM NOT_NAMED 1927-09-10 06:00:00 NR 24.4439 128.889 main 699 687 __________P___ -1 24.4439 128.889 2 4 335
1927252N20128 1927 46 WP MM NOT_NAMED 1927-09-10 09:00:00 NR 24.6000 128.800 main 687 675 __________O___ -1 24.6000 128.800 2 4 337
1927252N20128 1927 46 WP MM NOT_NAMED 1927-09-10 12:00:00 NR 24.8291 128.710 main 675 664 __________P___ -1 24.8291 128.710 2 5 339
1927252N20128 1927 46 WP MM NOT_NAMED 1927-09-10 15:00:00 NR 25.0575 128.608 main 664 654 __________P___ -1 25.0575 128.608 2 5 337
1927252N20128 1927 46 WP MM NOT_NAMED 1927-09-10 18:00:00 NR 25.2822 128.501 main 654 644 __________P___ -1 25.2822 128.501 2 5 337
1927252N20128 1927 46 WP MM NOT_NAMED 1927-09-10 21:00:00 NR 25.5000 128.400 main 645 636 __________O___ -1 25.5000 128.400 2 4 337
1927252N20128 1927 46 WP MM NOT_NAMED 1927-09-11 00:00:00 NR 25.6259 128.337 main 636 636 __________P___ -1 25.6259 128.337 2 3 337
1927252N20128 1927 46 WP MM NOT_NAMED 1927-09-11 03:00:00 NR 25.7574 128.278 main 626 619 __________P___ -1 25.7574 128.278 2 4 341
1927252N20128 1927 46 WP MM NOT_NAMED 1927-09-11 06:00:00 NR 25.9602 128.205 main 609 582 __________P___ -1 25.9602 128.205 2 6 344
1927252N20128 1927 46 WP MM NOT_NAMED 1927-09-11 09:00:00 NR 26.3000 128.100 main 582 539 __________O___ -1 26.3000 128.100 2 10 343
1927252N20128 1927 46 WP MM NOT_NAMED 1927-09-11 12:00:00 NR 26.8689 127.890 main 529 478 __________P___ -1 26.8689 127.890 2 13 343
1927252N20128 1927 46 WP MM NOT_NAMED 1927-09-11 15:00:00 NR 27.5732 127.652 main 468 415 __________P___ -1 27.5732 127.652 2 15 345
1927252N20128 1927 46 WP MM NOT_NAMED 1927-09-11 18:00:00 NR 28.3408 127.438 main 421 363 __________P___ -1 28.3408 127.438 2 16 349
1927252N20128 1927 46 WP MM NOT_NAMED 1927-09-11 21:00:00 NR 29.1000 127.300 main 363 318 __________O___ -1 29.1000 127.300 2 15 354
1927252N20128 1927 46 WP MM NOT_NAMED 1927-09-12 00:00:00 NR 29.7987 127.272 main 318 290 __________P___ -1 29.7987 127.272 2 14 1
1927252N20128 1927 46 WP MM NOT_NAMED 1927-09-12 03:00:00 NR 30.4691 127.333 main 287 256 __________P___ -1 30.4691 127.333 2 13 8
1927252N20128 1927 46 WP MM NOT_NAMED 1927-09-12 06:00:00 NR 31.0799 127.478 main 249 206 __________P___ -1 31.0799 127.478 2 12 16
1927252N20128 1927 46 WP MM NOT_NAMED 1927-09-12 09:00:00 NR 31.6000 127.700 main 206 177 __________O___ -1 31.6000 127.700 2 10 22
1927252N20128 1927 46 WP MM NOT_NAMED 1927-09-12 12:00:00 NR 32.0247 127.917 main 177 144 __________P___ -1 32.0247 127.917 2 9 30
1927252N20128 1927 46 WP MM NOT_NAMED 1927-09-12 15:00:00 NR 32.3553 128.213 main 142 99 __________P___ -1 32.3553 128.213 2 8 45
1927252N20128 1927 46 WP MM NOT_NAMED 1927-09-12 18:00:00 NR 32.6084 128.602 main 99 47 __________P___ -1 32.6084 128.602 2 9 59
1927252N20128 1927 46 WP MM NOT_NAMED 1927-09-12 21:00:00 NR 32.8000 129.100 main 47 0 __________O___ -1 32.8000 129.100 2 9 70
1927252N20128 1927 46 WP MM NOT_NAMED 1927-09-13 00:00:00 NR 32.9258 129.633 main 0 0 __________P___ -1 32.9258 129.633 2 10 78
1927252N20128 1927 46 WP MM NOT_NAMED 1927-09-13 03:00:00 NR 33.0017 130.280 main 9 0 __________P___ -1 33.0017 130.280 2 12 83
1927252N20128 1927 46 WP MM NOT_NAMED 1927-09-13 06:00:00 NR 33.0770 131.062 main 0 0 __________P___ -1 33.0770 131.062 2 15 82
1927252N20128 1927 46 WP MM NOT_NAMED 1927-09-13 09:00:00 NR 33.2000 132.000 main 18 0 __________O___ -1 33.2000 132.000 2 17 80
1927252N20128 1927 46 WP MM NOT_NAMED 1927-09-13 12:00:00 NR 33.3666 133.118 main 0 0 __________P___ -1 33.3666 133.118 2 20 79
1927252N20128 1927 46 WP MM NOT_NAMED 1927-09-13 15:00:00 NR 33.5886 134.387 main 9 0 __________P___ -1 33.5886 134.387 2 22 76
1927252N20128 1927 46 WP MM NOT_NAMED 1927-09-13 18:00:00 NR 33.8906 135.737 main 0 0 __________P___ -1 33.8906 135.737 2 24 72
1927252N20128 1927 46 WP MM NOT_NAMED 1927-09-13 21:00:00 NR 34.3000 137.100 main 18 0 __________O___ -1 34.3000 137.100 2 24 70
1927252N20128 1927 46 WP MM NOT_NAMED 1927-09-14 00:00:00 NR 34.7157 138.428 main 14 0 __________P___ -1 34.7157 138.428 2 24 66
1927252N20128 1927 46 WP MM NOT_NAMED 1927-09-14 03:00:00 NR 35.2549 139.756 main 0 0 __________P___ -1 35.2549 139.756 2 25 60
1927252N20128 1927 46 WP MM NOT_NAMED 1927-09-14 06:00:00 NR 35.9663 141.055 main 37 37 __________P___ -1 35.9663 141.055 2 26 51
1927252N20128 1927 46 WP MM NOT_NAMED 1927-09-14 09:00:00 NR 36.9000 142.300 main 115 115 __________O___ -1 36.9000 142.300 2 29 42
1927252N20128 1927 46 WP MM NOT_NAMED 1927-09-14 12:00:00 NR 38.0883 143.476 main 175 172 __________P___ -1 38.0883 143.476 2 32 35
1927252N20128 1927 46 WP MM NOT_NAMED 1927-09-14 15:00:00 NR 39.4825 144.612 main 213 213 __________P___ -1 39.4825 144.612 2 34 31
1927252N20128 1927 46 WP MM NOT_NAMED 1927-09-14 18:00:00 NR 41.0112 145.742 main 223 131 __________P___ -1 41.0112 145.742 2 36 29
1927252N20128 1927 46 WP MM NOT_NAMED 1927-09-14 21:00:00 NR 42.6000 146.900 main 131 __________O___ -1 42.6000 146.900 2 36 28

Digital Typhoon Data and Search

About IBTrACS Database

This database is a web-friendly format of International Best Track Archive for Climate Stewardship (IBTrACS), a global best track data archive curated by NOAA dating back to 1842.

Updated: 2021-12-03